Time;durP1;ratioP1;P1;durP2;ratioP2;P2;SDS_P1;SDS_P2;PMS_P1;PMS_P2;Temp;Humidity;BMP_temperature;BMP_pressure;BME280_temperature;BME280_humidity;BME280_pressure;Samples;Min_cycle;Max_cycle;Signal;HPM_P1;HPM_P2
2021/03/15 00:02:06;;;;;;;8.50;5.80;;;;;;;11.43;63.90;97928.44;4916535;29;20032;-74
2021/03/15 00:04:31;;;;;;;8.15;5.90;;;;;;;11.40;63.65;97916.44;4916882;29;20047;-73
2021/03/15 00:06:56;;;;;;;11.25;6.70;;;;;;;11.38;63.65;97908.72;4898978;29;20279;-73
2021/03/15 00:09:22;;;;;;;8.95;5.95;;;;;;;11.44;63.81;97913.94;4916747;29;20067;-73
2021/03/15 00:11:47;;;;;;;9.52;5.82;;;;;;;11.39;64.04;97904.16;4916505;29;20040;-73
2021/03/15 00:14:13;;;;;;;11.30;6.35;;;;;;;11.34;63.73;97904.31;4916349;29;20028;-73
2021/03/15 00:16:38;;;;;;;8.30;6.00;;;;;;;11.35;64.20;97924.59;4916069;29;20480;-74
2021/03/15 00:19:03;;;;;;;7.70;6.03;;;;;;;11.34;64.22;97918.47;4916026;29;20025;-74
2021/03/15 00:21:29;;;;;;;8.55;6.10;;;;;;;11.30;64.59;97912.16;4916152;29;20028;-74
2021/03/15 00:23:54;;;;;;;8.88;6.32;;;;;;;11.26;64.41;97911.19;4916291;29;21090;-74
2021/03/15 00:26:20;;;;;;;7.78;5.60;;;;;;;11.24;64.35;97902.66;4916602;29;20119;-74
2021/03/15 00:28:45;;;;;;;9.40;5.53;;;;;;;11.23;64.43;97908.31;4899254;29;20028;-74
2021/03/15 00:31:11;;;;;;;8.27;5.65;;;;;;;11.21;64.61;97901.41;4916638;29;20039;-77
2021/03/15 00:33:36;;;;;;;7.07;5.65;;;;;;;11.20;64.40;97901.72;4915781;29;20032;-77
2021/03/15 00:36:02;;;;;;;9.43;5.47;;;;;;;11.20;65.36;97901.72;4916105;29;20584;-77
2021/03/15 00:38:27;;;;;;;9.65;6.20;;;;;;;11.20;65.42;97897.16;4899131;29;20036;-77
2021/03/15 00:40:52;;;;;;;8.43;5.82;;;;;;;11.18;65.02;97883.28;4916019;29;20486;-77
2021/03/15 00:43:18;;;;;;;9.27;5.63;;;;;;;11.15;65.72;97875.09;4899162;29;20036;-77
2021/03/15 00:45:43;;;;;;;7.53;5.80;;;;;;;11.16;65.64;97871.31;4915622;29;20540;-77
2021/03/15 00:48:09;;;;;;;8.15;5.78;;;;;;;11.19;65.83;97881.38;4916060;29;20031;-77
2021/03/15 00:50:42;;;;;;;9.75;6.30;;;;;;;11.20;65.58;97874.94;4916101;29;20038;-77
2021/03/15 00:53:08;;;;;;;8.90;6.00;;;;;;;11.16;66.68;97869.41;4905648;29;20116;-75
2021/03/15 00:55:34;;;;;;;8.18;5.95;;;;;;;11.18;67.64;97874.47;4915468;29;20043;-76
2021/03/15 00:58:00;;;;;;;11.50;6.57;;;;;;;11.15;67.98;97861.72;4915186;29;20032;-76
2021/03/15 01:00:28;;;;;;;10.75;6.55;;;;;;;11.14;68.86;97862.81;4915851;29;20096;-77
2021/03/15 01:02:54;;;;;;;9.93;7.00;;;;;;;11.13;68.62;97861.22;4898350;29;20115;-76
2021/03/15 01:05:27;;;;;;;10.75;6.72;;;;;;;11.13;69.00;97862.03;4898798;29;20511;-77
2021/03/15 01:07:52;;;;;;;8.07;6.93;;;;;;;11.14;69.69;97858.22;4915047;29;20411;-77
2021/03/15 01:10:21;;;;;;;9.18;6.43;;;;;;;11.14;69.80;97854.78;4915896;29;20028;-77
2021/03/15 01:12:46;;;;;;;9.40;7.18;;;;;;;11.15;70.01;97853.69;4915648;29;20385;-76
2021/03/15 01:15:13;;;;;;;8.48;6.47;;;;;;;11.16;69.98;97845.34;4915506;29;20135;-75
2021/03/15 01:17:38;;;;;;;8.73;6.57;;;;;;;11.16;69.93;97839.22;4915333;29;20035;-74
2021/03/15 01:20:06;;;;;;;13.05;7.75;;;;;;;11.16;70.18;97833.84;4915406;29;20123;-74
2021/03/15 01:22:31;;;;;;;12.15;7.68;;;;;;;11.19;70.55;97834.03;4914788;29;20583;-76
2021/03/15 01:24:57;;;;;;;8.98;5.85;;;;;;;11.20;70.94;97834.81;4914976;29;20028;-76
2021/03/15 01:27:22;;;;;;;12.55;5.85;;;;;;;11.14;70.56;97820.78;4915368;29;20503;-74
2021/03/15 01:29:47;;;;;;;9.55;6.40;;;;;;;11.22;71.10;97819.25;4914758;29;20028;-76
2021/03/15 01:32:13;;;;;;;12.05;6.68;;;;;;;11.22;70.67;97816.56;4915062;29;20044;-76
2021/03/15 01:34:38;;;;;;;10.18;6.05;;;;;;;11.21;70.76;97821.09;4915252;29;20031;-75
2021/03/15 01:37:05;;;;;;;7.72;6.18;;;;;;;11.19;70.37;97809.13;4915098;29;20509;-75
2021/03/15 01:39:31;;;;;;;10.90;6.53;;;;;;;11.23;70.82;97812.00;4897864;29;20453;-75
2021/03/15 01:41:57;;;;;;;12.80;6.57;;;;;;;11.22;70.56;97811.22;4914990;29;20115;-76
2021/03/15 01:44:23;;;;;;;9.30;5.93;;;;;;;11.24;70.06;97808.22;4915164;29;20044;-75
2021/03/15 01:46:48;;;;;;;12.40;7.68;;;;;;;11.27;70.43;97815.63;4914413;29;20039;-75
2021/03/15 01:49:14;;;;;;;8.85;5.47;;;;;;;11.24;70.41;97817.03;4915350;29;20481;-75
2021/03/15 01:51:40;;;;;;;11.85;6.40;;;;;;;11.25;69.76;97809.81;4915308;29;20039;-75
2021/03/15 01:54:06;;;;;;;8.48;6.10;;;;;;;11.29;70.11;97810.75;4914911;29;20059;-75
2021/03/15 01:56:32;;;;;;;11.55;7.25;;;;;;;11.30;70.26;97802.44;4915035;29;20503;-75
2021/03/15 01:58:57;;;;;;;7.57;5.63;;;;;;;11.29;69.84;97800.84;4914388;29;20028;-76
2021/03/15 02:01:23;;;;;;;8.75;6.40;;;;;;;11.30;69.93;97802.44;4914895;29;20032;-75
2021/03/15 02:03:49;;;;;;;7.07;6.38;;;;;;;11.30;69.96;97788.25;4914693;29;20067;-75
2021/03/15 02:06:14;;;;;;;8.13;6.00;;;;;;;11.32;69.10;97789.50;4914911;29;20024;-76
2021/03/15 02:08:41;;;;;;;8.10;6.18;;;;;;;11.33;69.42;97795.66;4914737;29;20036;-76
2021/03/15 02:11:24;;;;;;;7.15;5.55;;;;;;;11.27;69.70;97780.84;4914553;29;20020;-76
2021/03/15 02:14:17;;;;;;;7.15;6.10;;;;;;;11.28;69.97;97782.41;4915993;29;20124;-76
2021/03/15 02:17:02;;;;;;;8.15;5.85;;;;;;;11.24;69.34;97776.09;4918749;29;20107;-76
2021/03/15 02:19:46;;;;;;;6.78;5.80;;;;;;;11.24;69.06;97774.19;4918947;29;20043;-76
2021/03/15 02:22:20;;;;;;;9.13;6.55;;;;;;;11.22;69.72;97773.75;4918890;29;20032;-75
2021/03/15 02:25:04;;;;;;;14.95;7.05;;;;;;;11.21;69.34;97774.84;4918342;29;20036;-76
2021/03/15 02:27:47;;;;;;;14.48;6.97;;;;;;;11.19;69.44;97780.50;4918517;29;20111;-76
2021/03/15 02:30:43;;;;;;;12.25;5.97;;;;;;;11.14;69.58;97761.91;4901391;29;20145;-77
2021/03/15 02:33:30;;;;;;;8.43;6.43;;;;;;;11.16;69.02;97775.00;4899607;29;20579;-77
2021/03/15 02:35:58;;;;;;;12.65;7.38;;;;;;;11.13;69.48;97770.25;4915798;29;20032;-76
2021/03/15 02:38:26;;;;;;;13.00;7.07;;;;;;;11.13;69.62;97771.06;4918432;29;20054;-77
2021/03/15 02:41:00;;;;;;;8.48;6.35;;;;;;;11.11;69.41;97778.59;4900920;29;20042;-76
2021/03/15 02:43:37;;;;;;;9.52;6.35;;;;;;;11.11;69.60;97775.09;4918327;29;20039;-77
2021/03/15 02:46:07;;;;;;;7.80;5.43;;;;;;;11.07;69.79;97774.97;4918022;29;20040;-77
2021/03/15 02:48:37;;;;;;;8.48;6.43;;;;;;;11.08;69.59;97773.84;4918176;29;20028;-77
2021/03/15 02:51:06;;;;;;;8.82;5.70;;;;;;;11.09;69.77;97775.44;4917686;29;20032;-78
2021/03/15 02:53:32;;;;;;;9.25;6.03;;;;;;;11.08;69.70;97765.81;4917996;29;20131;-77
2021/03/15 02:56:06;;;;;;;8.25;5.47;;;;;;;11.09;69.26;97770.06;4917873;29;20087;-77
2021/03/15 02:58:33;;;;;;;9.55;5.95;;;;;;;11.11;70.00;97762.53;4918025;29;20095;-76
2021/03/15 03:01:01;;;;;;;9.02;5.55;;;;;;;11.13;69.42;97765.69;4900345;29;20027;-77
2021/03/15 03:03:27;;;;;;;10.25;6.25;;;;;;;11.14;69.53;97767.25;4901002;29;20401;-75
2021/03/15 03:05:55;;;;;;;7.85;5.38;;;;;;;11.18;69.40;97760.19;4917976;29;20038;-75
2021/03/15 03:08:22;;;;;;;10.63;6.40;;;;;;;11.18;69.32;97756.72;4917880;29;20036;-75
2021/03/15 03:10:50;;;;;;;10.85;7.10;;;;;;;11.22;69.30;97771.06;4917873;29;20083;-75
2021/03/15 03:13:21;;;;;;;9.02;6.25;;;;;;;11.22;68.77;97760.38;4917982;29;20428;-75
2021/03/15 03:15:47;;;;;;;12.45;7.35;;;;;;;11.22;68.84;97757.69;4917240;29;20036;-75
2021/03/15 03:18:15;;;;;;;8.07;6.43;;;;;;;11.15;68.92;97743.97;4917220;29;20040;-76
2021/03/15 03:20:43;;;;;;;8.82;6.10;;;;;;;11.20;69.19;97751.84;4917317;29;20523;-76
2021/03/15 03:23:09;;;;;;;10.82;6.95;;;;;;;11.18;69.47;97754.03;4917384;29;20040;-75
2021/03/15 03:25:35;;;;;;;9.88;7.07;;;;;;;11.14;69.90;97743.16;4900580;29;20407;-76
2021/03/15 03:28:03;;;;;;;10.02;6.93;;;;;;;11.09;70.17;97746.00;4917104;29;20024;-75
2021/03/15 03:30:31;;;;;;;12.10;8.00;;;;;;;11.05;70.22;97739.72;4917497;29;20028;-76
2021/03/15 03:33:04;;;;;;;8.98;6.50;;;;;;;11.01;70.43;97734.19;4916573;29;20043;-76
2021/03/15 03:35:30;;;;;;;6.47;5.60;;;;;;;11.00;70.35;97729.16;4917406;29;20032;-76
2021/03/15 03:37:57;;;;;;;9.20;6.72;;;;;;;11.03;70.81;97731.19;4917400;29;20039;-76
2021/03/15 03:40:23;;;;;;;6.38;5.40;;;;;;;11.03;70.18;97715.13;4916859;29;20149;-76
2021/03/15 03:42:49;;;;;;;8.50;5.25;;;;;;;11.10;70.58;97717.38;4917053;29;20039;-76
2021/03/15 03:45:14;;;;;;;9.40;6.43;;;;;;;11.09;70.50;97716.56;4917222;29;20032;-76
2021/03/15 03:47:41;;;;;;;7.45;6.05;;;;;;;11.12;70.36;97715.16;4917158;29;20028;-76
2021/03/15 03:50:11;;;;;;;7.57;5.35;;;;;;;11.12;70.46;97705.25;4916888;29;20508;-75
2021/03/15 03:52:38;;;;;;;8.15;5.30;;;;;;;11.17;70.88;97696.28;4916760;29;20048;-75
2021/03/15 03:55:08;;;;;;;8.05;4.95;;;;;;;11.21;70.49;97703.38;4916805;29;20083;-74
2021/03/15 03:57:37;;;;;;;6.30;5.15;;;;;;;11.19;70.23;97694.06;4916686;29;20060;-75
2021/03/15 04:00:11;;;;;;;11.38;5.95;;;;;;;11.25;71.14;97698.19;4916278;29;20062;-74
2021/03/15 04:03:17;;;;;;;6.68;5.35;;;;;;;11.29;70.90;97699.16;4916928;29;20437;-74
2021/03/15 04:05:48;;;;;;;12.35;4.85;;;;;;;11.29;70.94;97688.44;4839706;29;20098;-74
2021/03/15 04:08:18;;;;;;;7.65;5.38;;;;;;;11.30;71.85;97689.22;4839255;29;20042;-74
2021/03/15 04:10:45;;;;;;;6.25;4.68;;;;;;;11.32;71.68;97679.00;4881416;29;20076;-74
2021/03/15 04:13:15;;;;;;;9.07;5.15;;;;;;;11.31;71.31;97675.50;4916142;29;20467;-75
2021/03/15 04:15:45;;;;;;;4.97;4.50;;;;;;;11.33;71.58;97659.94;4916833;29;20036;-75
2021/03/15 04:18:12;;;;;;;5.65;4.47;;;;;;;11.32;71.87;97668.28;4916458;29;20036;-75
2021/03/15 04:20:41;;;;;;;5.85;3.85;;;;;;;11.30;71.73;97663.25;4916868;29;20488;-76
2021/03/15 04:23:08;;;;;;;;;;;;;;;11.34;72.06;97674.91;4916295;29;20122;-77
2021/03/15 04:25:36;;;;;;;6.57;4.45;;;;;;;11.35;71.56;97673.78;4898923;29;19990;-77
2021/03/15 04:28:06;;;;;;;;;;;;;;;11.36;72.32;97666.53;4899308;29;20024;-77
2021/03/15 04:30:32;;;;;;;8.80;4.63;;;;;;;11.32;71.95;97661.03;4916354;29;19911;-77
2021/03/15 04:32:59;;;;;;;5.63;4.63;;;;;;;11.34;72.25;97660.75;4916468;29;20067;-77
2021/03/15 04:35:31;;;;;;;10.60;5.93;;;;;;;11.35;71.80;97660.41;4899223;29;20127;-77
2021/03/15 04:38:02;;;;;;;6.60;4.25;;;;;;;11.33;71.82;97676.00;4915400;29;20464;-76
2021/03/15 04:40:29;;;;;;;11.23;4.75;;;;;;;11.33;72.07;97662.59;4915991;29;20035;-76
2021/03/15 04:43:02;;;;;;;7.93;5.33;;;;;;;11.35;71.35;97665.75;4915635;29;20154;-76
2021/03/15 04:45:33;;;;;;;7.45;5.22;;;;;;;11.34;71.44;97664.19;4915150;29;20397;-75
2021/03/15 04:48:05;;;;;;;5.72;4.25;;;;;;;11.34;71.43;97652.72;4915710;29;20141;-78
2021/03/15 04:50:32;;;;;;;5.15;4.00;;;;;;;11.38;71.20;97653.63;4898946;29;20036;-78
2021/03/15 04:52:58;;;;;;;5.82;4.07;;;;;;;11.37;71.24;97647.47;4892119;29;20131;-78
2021/03/15 04:55:25;;;;;;;9.13;5.00;;;;;;;11.41;71.07;97642.28;4880149;29;20489;-78
2021/03/15 04:57:57;;;;;;;7.65;5.25;;;;;;;11.43;71.41;97648.13;4879891;29;20092;-77
2021/03/15 05:00:23;;;;;;;7.88;5.30;;;;;;;11.47;71.30;97633.00;4897254;29;20496;-77
2021/03/15 05:02:50;;;;;;;12.77;5.50;;;;;;;11.50;70.86;97631.59;4879759;29;20499;-77
2021/03/15 05:05:16;;;;;;;10.55;5.57;;;;;;;11.53;71.06;97629.06;4879823;29;20039;-75
2021/03/15 05:07:45;;;;;;;11.90;6.32;;;;;;;11.50;70.83;97623.56;4896625;29;20036;-75
2021/03/15 05:10:12;;;;;;;11.50;5.97;;;;;;;11.58;71.61;97630.78;4879439;29;20998;-76
2021/03/15 05:12:39;;;;;;;10.65;6.70;;;;;;;11.60;71.72;97635.84;4896848;29;20032;-75
2021/03/15 05:15:07;;;;;;;9.75;5.68;;;;;;;11.60;71.34;97631.25;4879297;29;20020;-76
2021/03/15 05:17:37;;;;;;;11.60;5.75;;;;;;;11.62;70.96;97637.09;4896407;29;20130;-75
2021/03/15 05:20:06;;;;;;;9.75;5.25;;;;;;;11.59;70.67;97637.72;4914972;29;20032;-77
2021/03/15 05:22:33;;;;;;;13.52;6.47;;;;;;;11.63;71.44;97637.88;4886304;29;20043;-79
2021/03/15 05:25:07;;;;;;;10.73;6.40;;;;;;;11.64;71.29;97639.44;4881189;29;20028;-76
2021/03/15 05:27:34;;;;;;;11.48;5.72;;;;;;;11.63;71.33;97638.66;4899960;29;20064;-76
2021/03/15 05:30:13;;;;;;;8.70;4.88;;;;;;;11.67;71.04;97630.78;4896035;29;20029;-76
2021/03/15 05:32:50;;;;;;;8.48;5.57;;;;;;;11.68;71.27;97619.75;4896282;29;20473;-76
2021/03/15 05:35:17;;;;;;;10.80;5.25;;;;;;;11.71;71.24;97621.00;4895147;29;20568;-76
2021/03/15 05:37:44;;;;;;;6.15;4.78;;;;;;;11.80;70.71;97612.94;4896244;29;20037;-76
2021/03/15 05:40:12;;;;;;;8.50;4.00;;;;;;;11.85;70.92;97615.44;4896106;29;20036;-76
2021/03/15 05:42:43;;;;;;;6.47;4.07;;;;;;;11.94;70.47;97618.13;4895982;29;20072;-76
2021/03/15 05:45:26;;;;;;;8.38;4.38;;;;;;;11.98;70.10;97617.16;4895558;29;20319;-76
2021/03/15 05:48:22;;;;;;;9.02;3.95;;;;;;;12.09;70.10;97622.97;4895321;29;20064;-76
2021/03/15 05:50:59;;;;;;;7.57;4.95;;;;;;;12.21;69.60;97619.63;4895893;29;20044;-75
2021/03/15 05:53:50;;;;;;;7.18;4.45;;;;;;;12.29;69.57;97616.13;4905762;29;20540;-76
2021/03/15 05:56:38;;;;;;;11.38;4.95;;;;;;;12.40;68.93;97619.25;4914609;29;20024;-75
2021/03/15 05:59:16;;;;;;;8.63;5.72;;;;;;;12.52;68.64;97623.91;4914757;29;20055;-76
2021/03/15 06:02:19;;;;;;;11.05;5.22;;;;;;;12.59;67.85;97618.81;4914965;29;20120;-76
2021/03/15 06:04:46;;;;;;;9.55;4.97;;;;;;;12.65;67.96;97614.81;4914885;29;20084;-76
2021/03/15 06:07:25;;;;;;;10.30;4.97;;;;;;;12.79;68.18;97614.59;4914641;29;20031;-75
2021/03/15 06:10:06;;;;;;;7.63;5.25;;;;;;;13.04;68.05;97600.56;4914677;29;20070;-75
2021/03/15 06:12:53;;;;;;;7.30;4.25;;;;;;;13.29;66.47;97599.56;4914742;29;20514;-76
2021/03/15 06:15:40;;;;;;;5.20;4.30;;;;;;;13.55;65.08;97611.97;4914123;29;20401;-76
2021/03/15 06:18:08;;;;;;;12.48;4.40;;;;;;;13.77;64.50;97607.34;4914525;29;20407;-76
2021/03/15 06:20:35;;;;;;;4.72;3.60;;;;;;;13.97;62.79;97602.25;4914776;29;20040;-75
2021/03/15 06:23:02;;;;;;;5.03;3.50;;;;;;;14.09;62.17;97608.41;4897257;29;20039;-76
2021/03/15 06:25:29;;;;;;;12.07;3.95;;;;;;;14.22;61.46;97587.69;4914100;29;20469;-76
2021/03/15 06:27:55;;;;;;;7.25;3.90;;;;;;;14.34;60.31;97583.44;4896988;29;20129;-76
2021/03/15 06:30:22;;;;;;;7.03;3.17;;;;;;;14.41;60.12;97578.28;4897452;29;20119;-76
2021/03/15 06:32:51;;;;;;;5.72;3.53;;;;;;;14.49;59.30;97585.47;4914379;29;20024;-76
2021/03/15 06:35:18;;;;;;;5.32;3.28;;;;;;;14.58;59.53;97593.41;4914036;29;20036;-76
2021/03/15 06:37:44;;;;;;;5.13;3.53;;;;;;;14.65;58.95;97577.50;4914291;29;20055;-76
2021/03/15 06:40:12;;;;;;;3.67;2.53;;;;;;;14.80;58.88;97586.78;4914401;29;20028;-75
2021/03/15 06:42:38;;;;;;;10.43;3.72;;;;;;;14.92;57.79;97566.34;4914221;29;20612;-77
2021/03/15 06:45:04;;;;;;;6.50;3.35;;;;;;;15.08;57.42;97567.19;4897383;29;20043;-75
2021/03/15 06:47:30;;;;;;;5.50;3.45;;;;;;;15.25;56.51;97574.19;4914591;29;20087;-77
2021/03/15 06:49:56;;;;;;;4.15;2.45;;;;;;;15.34;56.07;97558.69;4914610;29;20040;-75
2021/03/15 06:52:21;;;;;;;8.18;3.10;;;;;;;15.52;54.96;97567.22;4913910;29;20052;-77
2021/03/15 06:54:47;;;;;;;5.13;2.70;;;;;;;15.64;54.25;97571.78;4914343;29;20024;-77
2021/03/15 06:57:23;;;;;;;5.55;2.78;;;;;;;15.73;54.42;97563.50;4913823;29;20452;-76
2021/03/15 06:59:56;;;;;;;5.60;3.10;;;;;;;15.79;53.99;97569.44;4915487;29;20055;-75
2021/03/15 07:02:25;;;;;;;6.10;2.97;;;;;;;15.83;54.15;97559.56;4917700;29;20028;-75
2021/03/15 07:04:52;;;;;;;7.03;2.95;;;;;;;15.84;53.68;97547.63;4917933;29;20095;-75
2021/03/15 07:07:26;;;;;;;4.43;3.17;;;;;;;15.82;53.89;97541.81;4917729;29;20134;-74
2021/03/15 07:09:52;;;;;;;10.48;3.75;;;;;;;15.83;54.38;97551.47;4917927;29;20492;-75
2021/03/15 07:12:22;;;;;;;4.47;3.13;;;;;;;15.81;54.20;97561.81;4917379;29;20947;-77
2021/03/15 07:14:49;;;;;;;8.38;3.28;;;;;;;15.78;54.47;97560.59;4917599;29;20499;-76
2021/03/15 07:17:27;;;;;;;4.97;2.67;;;;;;;15.80;54.80;97555.59;4917469;29;20040;-77
2021/03/15 07:19:53;;;;;;;;;;;;;;;15.78;54.73;97559.78;4918197;29;20032;-77
2021/03/15 07:22:21;;;;;;;4.45;3.55;;;;;;;15.76;54.82;97553.94;4917508;29;19953;-75
2021/03/15 07:25:10;;;;;;;5.40;2.92;;;;;;;15.83;54.88;97567.63;4917694;29;20075;-77
2021/03/15 07:27:38;;;;;;;3.30;3.00;;;;;;;15.85;54.34;97562.69;4917439;29;20066;-77
2021/03/15 07:30:27;;;;;;;10.13;3.75;;;;;;;15.90;53.82;97567.03;4917407;29;20539;-77
2021/03/15 07:32:58;;;;;;;6.82;3.40;;;;;;;15.92;54.01;97540.53;4912012;29;20040;-76
2021/03/15 07:35:31;;;;;;;6.18;3.45;;;;;;;15.90;53.26;97543.56;4917213;29;20448;-76
2021/03/15 07:37:56;;;;;;;4.57;3.10;;;;;;;15.91;53.52;97542.44;4917441;29;20032;-76
2021/03/15 07:40:35;;;;;;;8.00;3.60;;;;;;;15.93;53.45;97536.69;4917117;29;20083;-76
2021/03/15 07:43:06;;;;;;;5.47;3.45;;;;;;;15.95;53.46;97529.03;4917327;29;20034;-76
2021/03/15 07:45:37;;;;;;;6.70;3.03;;;;;;;15.98;53.45;97518.34;4917187;29;20074;-76
2021/03/15 07:48:08;;;;;;;6.18;3.22;;;;;;;16.00;52.89;97523.38;4917012;29;20040;-75
2021/03/15 07:50:35;;;;;;;5.30;3.80;;;;;;;16.02;52.99;97523.81;4917087;29;20036;-76
2021/03/15 07:53:05;;;;;;;3.53;2.75;;;;;;;16.06;52.91;97519.28;4916617;29;20107;-76
2021/03/15 07:55:38;;;;;;;10.50;2.63;;;;;;;16.05;51.27;97523.13;4916708;29;20532;-76
2021/03/15 07:58:26;;;;;;;6.50;3.05;;;;;;;16.03;51.87;97511.91;4916728;29;20486;-76
2021/03/15 08:00:56;;;;;;;6.88;3.53;;;;;;;16.09;51.33;97497.03;4917007;29;20059;-75
2021/03/15 08:03:23;;;;;;;4.50;3.08;;;;;;;16.20;50.89;97499.16;4916768;29;20043;-76
2021/03/15 08:05:49;;;;;;;8.40;3.28;;;;;;;16.31;50.56;97500.22;4916834;29;20476;-76
2021/03/15 08:08:15;;;;;;;2.88;2.63;;;;;;;16.43;49.38;97489.28;4916360;29;20039;-76
2021/03/15 08:10:45;;;;;;;7.82;2.55;;;;;;;16.49;48.32;97489.81;4916082;29;20476;-76
2021/03/15 08:13:12;;;;;;;3.50;2.10;;;;;;;16.65;48.30;97481.66;4899371;29;20412;-76
2021/03/15 08:15:40;;;;;;;8.83;3.00;;;;;;;16.74;47.31;97466.00;4916602;29;20032;-75
2021/03/15 08:18:08;;;;;;;6.28;3.25;;;;;;;16.84;46.93;97463.88;4916391;29;20468;-75
2021/03/15 08:20:41;;;;;;;4.60;2.80;;;;;;;16.99;46.86;97463.06;4916466;29;20032;-75
2021/03/15 08:23:07;;;;;;;5.13;3.03;;;;;;;17.09;45.10;97473.25;4916491;29;20028;-77
2021/03/15 08:25:34;;;;;;;6.97;2.50;;;;;;;17.22;44.78;97462.28;4899495;29;20440;-77
2021/03/15 08:28:03;;;;;;;3.15;2.72;;;;;;;17.32;45.67;97456.31;4916145;29;20412;-74
2021/03/15 08:30:31;;;;;;;2.88;2.10;;;;;;;17.40;42.84;97446.41;4916302;29;20032;-77
2021/03/15 08:32:58;;;;;;;5.55;2.67;;;;;;;17.49;43.29;97446.16;4916022;29;20416;-77
2021/03/15 08:35:24;;;;;;;4.70;2.40;;;;;;;17.52;43.59;97445.44;4916043;29;20032;-77
2021/03/15 08:38:00;;;;;;;4.75;2.55;;;;;;;17.47;43.76;97443.81;4916319;29;20031;-77
2021/03/15 08:40:41;;;;;;;2.78;2.45;;;;;;;17.42;43.07;97439.50;4915924;29;20370;-77
2021/03/15 08:43:20;;;;;;;5.95;2.55;;;;;;;17.33;43.21;97438.16;4915940;29;20028;-77
2021/03/15 08:45:58;;;;;;;4.40;2.67;;;;;;;17.25;43.09;97464.28;4916068;29;20028;-77
2021/03/15 08:48:32;;;;;;;3.25;2.90;;;;;;;17.13;44.07;97438.97;4915925;29;20028;-76
2021/03/15 08:50:59;;;;;;;4.78;2.90;;;;;;;17.04;44.74;97434.94;4916425;29;20068;-77
2021/03/15 08:53:36;;;;;;;3.38;2.83;;;;;;;17.00;44.91;97440.28;4915666;29;20051;-77
2021/03/15 08:56:02;;;;;;;6.30;4.25;;;;;;;16.92;45.39;97417.78;4915784;29;20024;-77
2021/03/15 08:58:50;;;;;;;4.20;3.40;;;;;;;16.90;45.34;97419.25;4915997;29;20055;-77
2021/03/15 09:01:18;;;;;;;4.25;2.83;;;;;;;16.85;44.67;97412.22;4915718;29;20495;-77
2021/03/15 09:03:57;;;;;;;6.18;3.28;;;;;;;16.86;44.64;97413.78;4915808;29;20040;-77
2021/03/15 09:06:37;;;;;;;8.77;3.63;;;;;;;16.90;44.62;97411.16;4915520;29;20067;-77
2021/03/15 09:09:07;;;;;;;7.95;2.80;;;;;;;16.90;43.96;97389.56;4915750;29;20560;-76
2021/03/15 09:11:40;;;;;;;6.80;3.47;;;;;;;16.94;44.49;97396.63;4915880;29;20080;-76
2021/03/15 09:14:18;;;;;;;6.05;3.28;;;;;;;16.98;44.04;97390.47;4915345;29;20035;-76
2021/03/15 09:16:45;;;;;;;7.38;3.92;;;;;;;16.97;44.32;97392.41;4915566;29;20419;-76
2021/03/15 09:19:39;;;;;;;5.07;3.33;;;;;;;17.00;44.52;97382.81;4915268;29;20044;-76
2021/03/15 09:22:06;;;;;;;5.88;2.75;;;;;;;17.03;43.16;97377.47;4915312;29;20148;-76
2021/03/15 09:24:51;;;;;;;3.33;3.03;;;;;;;17.01;43.09;97374.34;4915511;29;20036;-77
2021/03/15 09:27:42;;;;;;;3.70;3.10;;;;;;;16.96;42.40;97378.13;4915130;29;20024;-76
2021/03/15 09:30:18;;;;;;;5.88;3.83;;;;;;;16.99;42.81;97367.75;4915259;29;20039;-76
2021/03/15 09:32:49;;;;;;;4.80;3.75;;;;;;;17.00;43.41;97375.47;4915333;29;20039;-76
2021/03/15 09:35:26;;;;;;;5.70;3.38;;;;;;;17.01;43.03;97381.69;4914987;29;20495;-76
2021/03/15 09:38:13;;;;;;;8.10;3.93;;;;;;;16.97;42.34;97357.31;4915256;29;20116;-75
2021/03/15 09:40:41;;;;;;;7.20;3.55;;;;;;;16.97;43.20;97349.22;4915353;29;20492;-75
2021/03/15 09:43:08;;;;;;;6.97;2.83;;;;;;;16.95;43.63;97351.47;4915151;29;20453;-74
2021/03/15 09:45:36;;;;;;;8.10;3.10;;;;;;;16.93;43.57;97348.34;4914824;29;20039;-77
2021/03/15 09:48:20;;;;;;;7.45;2.92;;;;;;;16.98;43.60;97336.47;4914968;29;20471;-75
2021/03/15 09:50:47;;;;;;;3.83;3.50;;;;;;;16.96;42.81;97324.13;4914743;29;20427;-74
2021/03/15 09:53:15;;;;;;;6.60;3.72;;;;;;;17.00;42.94;97321.47;4914767;29;20103;-77
2021/03/15 09:55:40;;;;;;;4.68;3.47;;;;;;;17.05;43.41;97326.59;4914973;29;20024;-77
2021/03/15 09:58:08;;;;;;;4.07;3.38;;;;;;;17.06;43.06;97327.38;4914315;29;20032;-77
2021/03/15 10:00:33;;;;;;;6.13;3.13;;;;;;;17.12;42.17;97317.81;4898016;29;20040;-76
2021/03/15 10:02:59;;;;;;;5.30;3.30;;;;;;;17.14;41.92;97329.03;4914691;29;20028;-76
2021/03/15 10:05:25;;;;;;;4.80;2.60;;;;;;;17.21;41.81;97331.06;4914437;29;20032;-76
2021/03/15 10:07:50;;;;;;;7.75;3.17;;;;;;;17.26;41.26;97311.88;4914997;29;20040;-76
2021/03/15 10:10:22;;;;;;;3.85;2.70;;;;;;;17.25;40.38;97323.81;4914677;29;20020;-76
2021/03/15 10:12:49;;;;;;;5.70;2.88;;;;;;;17.28;41.08;97312.25;4914609;29;20103;-75
2021/03/15 10:15:17;;;;;;;5.70;2.70;;;;;;;17.29;41.03;97320.00;4914555;29;20035;-76
2021/03/15 10:17:43;;;;;;;5.50;2.38;;;;;;;17.27;41.74;97314.19;4914833;29;20428;-76
2021/03/15 10:20:20;;;;;;;6.57;2.67;;;;;;;17.28;41.51;97304.16;4914598;29;20043;-75
2021/03/15 10:22:45;;;;;;;4.30;2.47;;;;;;;17.24;42.51;97295.22;4914566;29;20452;-75
2021/03/15 10:25:13;;;;;;;6.95;3.00;;;;;;;17.21;43.64;97321.06;4914580;29;20115;-75
2021/03/15 10:27:39;;;;;;;6.97;3.42;;;;;;;17.20;43.82;97289.78;4914972;29;20055;-75
2021/03/15 10:30:07;;;;;;;5.10;2.80;;;;;;;17.22;44.19;97292.09;4897650;29;20468;-77
2021/03/15 10:32:33;;;;;;;4.03;2.90;;;;;;;17.23;44.81;97277.47;4914430;29;20111;-76
2021/03/15 10:35:01;;;;;;;3.90;3.55;;;;;;;17.27;44.39;97278.28;4915410;29;20464;-76
2021/03/15 10:37:30;;;;;;;4.68;2.97;;;;;;;17.26;42.68;97272.13;4917818;29;20487;-75
2021/03/15 10:39:56;;;;;;;6.13;2.83;;;;;;;17.21;41.35;97247.31;4918308;29;20099;-75
2021/03/15 10:42:23;;;;;;;6.05;2.35;;;;;;;17.19;41.37;97231.50;4918240;29;20102;-76
2021/03/15 10:44:50;;;;;;;3.95;2.75;;;;;;;17.24;41.66;97257.41;4918271;29;20039;-76
2021/03/15 10:47:34;;;;;;;3.63;3.10;;;;;;;17.27;41.85;97240.47;4918076;29;20074;-76
2021/03/15 10:50:01;;;;;;;4.10;3.00;;;;;;;17.32;41.53;97240.16;4918042;29;20029;-75
2021/03/15 10:52:34;;;;;;;2.95;2.63;;;;;;;17.29;41.83;97222.75;4917660;29;20024;-75
2021/03/15 10:55:11;;;;;;;4.43;2.70;;;;;;;17.31;42.64;97235.09;4918071;29;20028;-75
2021/03/15 10:57:37;;;;;;;2.92;2.72;;;;;;;17.36;42.46;97238.28;4918061;29;20056;-76
2021/03/15 11:00:22;;;;;;;5.88;3.45;;;;;;;17.39;41.79;97213.25;4917972;29;20489;-75
2021/03/15 11:02:47;;;;;;;7.05;3.20;;;;;;;17.39;41.31;97215.94;4917840;29;20036;-75
2021/03/15 11:05:14;;;;;;;3.80;3.17;;;;;;;17.38;41.61;97197.38;4917512;29;20032;-77
2021/03/15 11:07:39;;;;;;;3.28;2.97;;;;;;;17.37;40.87;97183.09;4917678;29;20029;-74
2021/03/15 11:10:08;;;;;;;3.58;2.90;;;;;;;17.34;41.74;97196.56;4917781;29;20416;-77
2021/03/15 11:12:39;;;;;;;7.13;4.05;;;;;;;17.34;41.99;97183.81;4917302;29;20063;-77
2021/03/15 11:15:16;;;;;;;5.47;3.50;;;;;;;17.37;42.27;97195.81;4917802;29;20031;-77
2021/03/15 11:17:55;;;;;;;3.93;3.33;;;;;;;17.33;42.27;97179.56;4917767;29;20036;-77
2021/03/15 11:20:52;;;;;;;4.28;3.45;;;;;;;17.39;42.18;97188.13;4917096;29;20750;-76
2021/03/15 11:23:51;;;;;;;7.95;4.25;;;;;;;17.34;42.50;97159.50;4916460;29;20036;-75
2021/03/15 11:26:16;;;;;;;5.40;3.13;;;;;;;17.35;42.94;97146.78;4909677;29;20108;-75
2021/03/15 11:28:46;;;;;;;4.75;3.35;;;;;;;17.38;43.39;97160.34;4917229;29;20040;-75
2021/03/15 11:31:15;;;;;;;4.75;3.33;;;;;;;17.33;43.43;97149.84;4917275;29;20032;-75
2021/03/15 11:33:41;;;;;;;;;;;;;;;17.38;44.22;97157.66;4917802;29;20068;-76
2021/03/15 11:36:16;;;;;;;5.25;3.65;;;;;;;17.38;44.59;97146.84;4917394;29;19957;-78
2021/03/15 11:39:08;;;;;;;5.20;3.63;;;;;;;17.35;43.35;97139.47;4900410;29;20083;-74
2021/03/15 11:41:38;;;;;;;3.70;3.10;;;;;;;17.33;42.86;97155.25;4914677;29;20427;-75
2021/03/15 11:44:04;;;;;;;3.72;3.38;;;;;;;17.27;43.88;97106.19;4917301;29;20115;-76
2021/03/15 11:46:30;;;;;;;4.30;2.88;;;;;;;17.26;43.18;97133.56;4915555;29;20111;-75
2021/03/15 11:48:55;;;;;;;4.72;4.07;;;;;;;17.22;43.61;97130.03;4917171;29;20024;-75
2021/03/15 11:51:21;;;;;;;5.43;4.40;;;;;;;17.15;44.44;97128.03;4916980;29;20024;-76